Time;durP1;ratioP1;P1;durP2;ratioP2;P2;SDS_P1;SDS_P2;PMS_P1;PMS_P2;Temp;Humidity;BMP_temperature;BMP_pressure;BME280_temperature;BME280_humidity;BME280_pressure;Samples;Min_cycle;Max_cycle;Signal;HPM_P1;HPM_P2
2021/12/17 00:02:56;;;;;;;35.47;18.97;;;;;;;10.07;83.38;102842.66;5050933;28;20212;-65
2021/12/17 00:05:08;;;;;;;30.50;18.03;;;;;;;10.09;83.54;102839.00;5060743;28;20306;-65
2021/12/17 00:07:40;;;;;;;30.07;17.80;;;;;;;10.10;83.44;102834.53;5062643;28;20776;-64
2021/12/17 00:10:11;;;;;;;28.07;17.63;;;;;;;9.99;84.18;102827.19;5059476;28;20557;-64
2021/12/17 00:12:39;;;;;;;33.70;19.03;;;;;;;9.97;84.19;102839.69;5058864;28;20215;-64
2021/12/17 00:15:09;;;;;;;28.20;17.57;;;;;;;9.99;84.64;102829.84;5060254;28;20638;-64
2021/12/17 00:17:49;;;;;;;27.93;17.73;;;;;;;10.07;83.77;102830.25;5056783;28;20237;-65
2021/12/17 00:20:51;;;;;;;33.00;18.67;;;;;;;10.03;83.86;102836.66;5058674;28;20208;-65
2021/12/17 00:43:49;;;;;;;31.57;17.00;;;;;;;9.98;84.88;102809.59;5053600;28;20258;-65
2021/12/17 00:48:37;;;;;;;35.60;17.90;;;;;;;9.93;85.33;102808.16;5055242;28;20302;-65
2021/12/17 00:54:03;;;;;;;30.53;19.27;;;;;;;10.00;84.61;102815.66;5059236;28;20241;-64
2021/12/17 00:56:31;;;;;;;31.23;18.60;;;;;;;10.06;84.28;102814.44;5064709;28;20217;-65
2021/12/17 00:58:59;;;;;;;34.23;18.60;;;;;;;10.04;84.28;102822.47;5063428;28;20224;-64
2021/12/17 01:01:27;;;;;;;33.37;19.70;;;;;;;9.99;84.47;102827.19;5057294;28;20223;-65
2021/12/17 01:03:56;;;;;;;33.00;19.73;;;;;;;10.00;84.19;102826.25;5050412;28;20299;-65
2021/12/17 01:06:25;;;;;;;30.63;19.13;;;;;;;10.05;84.02;102818.88;5061791;28;20229;-65
2021/12/17 01:08:53;;;;;;;30.57;18.40;;;;;;;10.06;84.29;102823.25;5060011;28;20207;-65
2021/12/17 01:11:22;;;;;;;30.63;18.23;;;;;;;10.05;83.93;102821.53;5056522;28;20251;-65
2021/12/17 01:13:50;;;;;;;31.73;19.80;;;;;;;9.99;84.56;102819.25;5053858;28;20214;-65
2021/12/17 01:16:19;;;;;;;33.17;19.27;;;;;;;10.01;84.84;102820.03;5049352;28;20581;-65
2021/12/17 01:18:56;;;;;;;32.53;17.80;;;;;;;10.10;83.98;102822.16;5053204;28;20320;-65
2021/12/17 01:21:35;;;;;;;31.20;19.10;;;;;;;10.05;84.60;102824.19;5061894;28;20210;-65
2021/12/17 01:35:23;;;;;;;31.17;19.40;;;;;;;9.99;84.60;102829.84;5060064;28;20215;-64
2021/12/17 01:41:14;;;;;;;30.87;18.07;;;;;;;9.97;84.89;102823.78;5056391;28;20217;-64
2021/12/17 01:43:47;;;;;;;32.27;19.97;;;;;;;9.98;85.00;102828.13;5059623;28;20211;-64
2021/12/17 01:46:19;;;;;;;33.70;19.43;;;;;;;9.99;84.70;102829.84;5052524;28;20236;-64
2021/12/17 01:49:00;;;;;;;31.70;19.33;;;;;;;9.99;84.72;102829.84;5058803;28;20231;-65
2021/12/17 02:00:08;;;;;;;28.27;18.73;;;;;;;9.98;84.69;102829.94;5060798;28;20247;-64
2021/12/17 02:02:42;;;;;;;33.07;19.80;;;;;;;9.99;84.78;102829.84;5053229;28;20205;-65
2021/12/17 02:05:12;;;;;;;37.83;19.27;;;;;;;10.03;84.43;102828.72;5054068;28;20590;-64
2021/12/17 02:07:40;;;;;;;35.17;19.73;;;;;;;10.02;84.74;102829.69;5064907;28;20271;-64
2021/12/17 02:19:26;;;;;;;31.47;20.47;;;;;;;9.90;85.41;102827.72;5041748;28;20233;-64
2021/12/17 02:32:30;;;;;;;32.10;19.07;;;;;;;9.95;84.84;102820.34;5060311;28;20569;-66
2021/12/17 02:37:57;;;;;;;33.07;19.13;;;;;;;9.98;85.28;102814.88;5016080;28;20273;-65
2021/12/17 02:46:07;;;;;;;32.47;19.70;;;;;;;9.86;86.35;102807.63;5052637;28;20211;-65
2021/12/17 02:48:35;;;;;;;32.80;19.37;;;;;;;9.93;86.07;102805.50;5055130;28;20209;-65
2021/12/17 02:51:04;;;;;;;33.90;19.57;;;;;;;9.93;85.87;102803.69;5058223;28;20215;-65
2021/12/17 02:53:33;;;;;;;32.53;19.03;;;;;;;9.95;85.83;102801.78;5062748;28;20208;-65
2021/12/17 02:56:04;;;;;;;33.20;19.20;;;;;;;10.04;85.14;102813.66;5056248;28;20232;-65
2021/12/17 02:58:34;;;;;;;33.53;20.27;;;;;;;10.05;84.80;102804.78;5052849;28;20210;-65
2021/12/17 03:01:06;;;;;;;32.80;20.33;;;;;;;10.00;85.13;102801.53;5063614;28;20311;-65
2021/12/17 03:03:35;;;;;;;31.63;19.50;;;;;;;9.94;85.72;102808.03;5062497;28;20271;-66
2021/12/17 03:06:02;;;;;;;36.57;20.07;;;;;;;9.92;85.77;102809.09;5054206;28;20209;-65
2021/12/17 03:08:31;;;;;;;33.70;19.40;;;;;;;10.04;85.13;102805.72;5052629;28;20561;-65
2021/12/17 03:11:02;;;;;;;30.37;19.40;;;;;;;10.00;85.13;102813.00;5061345;28;20239;-66
2021/12/17 03:13:33;;;;;;;32.60;19.17;;;;;;;9.94;85.62;102813.34;5054829;28;20241;-66
2021/12/17 03:16:08;;;;;;;33.37;18.87;;;;;;;10.00;85.00;102806.84;5067724;28;20209;-65
2021/12/17 03:18:59;;;;;;;36.60;21.07;;;;;;;9.96;85.59;102808.81;5053727;28;20603;-65
2021/12/17 03:24:12;;;;;;;33.03;19.40;;;;;;;9.94;85.73;102809.84;5055374;28;20836;-65
2021/12/17 03:26:41;;;;;;;35.03;20.60;;;;;;;9.96;85.24;102810.59;5056350;28;20303;-65
2021/12/17 03:29:09;;;;;;;33.87;19.87;;;;;;;9.98;85.38;102811.38;5056683;28;20698;-65
2021/12/17 03:31:38;;;;;;;36.63;19.27;;;;;;;9.96;85.75;102810.59;5063791;28;20209;-65
2021/12/17 03:34:17;;;;;;;35.80;20.00;;;;;;;10.01;85.46;102816.50;5065321;28;20210;-65
2021/12/17 03:36:48;;;;;;;36.10;19.77;;;;;;;9.95;85.80;102815.03;5054571;28;20663;-65
2021/12/17 03:39:16;;;;;;;39.77;21.40;;;;;;;9.97;85.74;102814.97;5060250;28;20208;-65
2021/12/17 03:41:50;;;;;;;38.13;20.63;;;;;;;10.01;85.60;102817.38;5059067;28;20237;-65
2021/12/17 03:44:20;;;;;;;38.13;20.27;;;;;;;9.93;86.21;102811.66;5051953;28;20212;-65
2021/12/17 03:46:49;;;;;;;34.63;18.80;;;;;;;9.90;85.65;102806.50;5064657;28;20341;-65
2021/12/17 03:49:18;;;;;;;35.47;20.03;;;;;;;9.97;85.54;102802.56;5053756;28;20284;-65
2021/12/17 03:51:52;;;;;;;31.10;19.00;;;;;;;9.95;85.56;102807.09;5053197;28;20208;-66
2021/12/17 03:54:20;;;;;;;30.27;17.70;;;;;;;9.93;85.71;102811.66;5057131;28;20641;-65
2021/12/17 03:56:49;;;;;;;32.47;18.30;;;;;;;9.93;85.78;102808.16;5056427;28;20291;-65
2021/12/17 03:59:17;;;;;;;32.50;19.80;;;;;;;9.96;85.18;102816.75;5067462;28;20213;-66
2021/12/17 04:01:44;;;;;;;34.23;19.60;;;;;;;9.96;84.94;102813.25;5052810;28;20318;-64
2021/12/17 04:04:12;;;;;;;35.33;18.70;;;;;;;9.97;84.78;102813.16;5056163;28;20210;-64
2021/12/17 04:06:40;;;;;;;29.23;17.83;;;;;;;9.98;84.43;102814.03;5060127;28;20229;-64
2021/12/17 04:09:09;;;;;;;33.73;17.53;;;;;;;10.06;83.85;102811.78;5059140;28;20652;-64
2021/12/17 04:11:37;;;;;;;36.13;17.17;;;;;;;10.02;84.00;102805.81;5064853;28;20217;-64
2021/12/17 04:14:07;;;;;;;32.20;17.27;;;;;;;9.98;83.62;102806.94;5054344;28;20688;-64
2021/12/17 04:16:35;;;;;;;37.40;19.27;;;;;;;10.00;83.58;102796.25;5063146;28;20215;-64
2021/12/17 04:19:03;;;;;;;31.93;17.27;;;;;;;9.93;83.72;102792.25;5060947;28;20335;-64
2021/12/17 04:21:31;;;;;;;30.60;18.30;;;;;;;10.02;83.59;102792.56;5057965;28;20650;-64
2021/12/17 04:23:59;;;;;;;32.47;16.77;;;;;;;10.03;83.43;102802.19;5050541;28;20202;-64
2021/12/17 04:26:27;;;;;;;31.80;17.47;;;;;;;9.97;83.44;102796.41;5061194;28;20648;-64
2021/12/17 04:28:55;;;;;;;29.90;16.53;;;;;;;9.98;83.49;102788.38;5059996;28;20222;-64
2021/12/17 04:31:27;;;;;;;28.83;16.07;;;;;;;9.96;83.31;102792.03;5062185;28;20270;-65
2021/12/17 04:33:56;;;;;;;31.90;16.03;;;;;;;9.94;83.12;102786.00;5061856;28;20210;-64
2021/12/17 04:36:28;;;;;;;28.80;16.57;;;;;;;9.97;83.32;102780.50;5061595;28;20204;-65
2021/12/17 04:38:56;;;;;;;26.37;16.57;;;;;;;9.93;83.15;102779.00;5057531;28;20219;-66
2021/12/17 04:41:43;;;;;;;27.97;15.40;;;;;;;9.97;82.95;102772.56;5060268;28;20227;-64
2021/12/17 04:44:16;;;;;;;30.37;15.80;;;;;;;9.90;83.35;102771.19;5058574;28;20214;-65
2021/12/17 04:46:50;;;;;;;29.47;15.77;;;;;;;9.96;83.20;102766.41;5060898;28;20231;-65
2021/12/17 04:57:34;;;;;;;28.60;15.73;;;;;;;9.74;83.38;102744.72;5056659;28;20683;-66
2021/12/17 05:00:07;;;;;;;32.60;15.33;;;;;;;9.70;83.33;102735.22;5062697;28;20303;-66
2021/12/17 05:02:43;;;;;;;25.30;14.87;;;;;;;9.67;83.19;102732.78;5059696;28;20228;-66
2021/12/17 05:05:12;;;;;;;25.93;15.10;;;;;;;9.61;83.40;102741.06;5051825;28;20667;-65
2021/12/17 05:07:45;;;;;;;23.20;15.23;;;;;;;9.57;83.35;102735.09;5049604;28;20295;-64
2021/12/17 05:10:22;;;;;;;30.07;17.67;;;;;;;9.56;83.41;102730.72;5055453;28;20212;-64
2021/12/17 05:18:26;;;;;;;29.57;16.20;;;;;;;9.33;84.04;102745.25;5054372;28;20217;-65
2021/12/17 05:20:58;;;;;;;30.07;16.53;;;;;;;9.32;84.19;102746.19;5054518;28;20246;-65
2021/12/17 05:23:30;;;;;;;30.10;17.37;;;;;;;9.38;84.14;102753.81;5054718;28;20754;-66
2021/12/17 05:25:59;;;;;;;30.27;17.33;;;;;;;9.28;84.02;102752.59;5068361;28;20212;-65
2021/12/17 05:28:27;;;;;;;29.13;15.83;;;;;;;9.28;83.77;102747.31;5061793;28;20222;-65
2021/12/17 05:30:56;;;;;;;27.70;15.57;;;;;;;9.23;83.87;102741.41;5055188;28;20200;-65
2021/12/17 05:33:26;;;;;;;25.87;15.60;;;;;;;9.17;84.35;102747.03;5055287;28;20306;-65
2021/12/17 05:35:56;;;;;;;25.73;15.03;;;;;;;9.16;84.25;102745.31;5060878;28;20630;-64
2021/12/17 05:38:25;;;;;;;29.70;15.97;;;;;;;9.12;84.37;102754.38;5051058;28;20208;-65
2021/12/17 05:40:54;;;;;;;28.40;15.37;;;;;;;9.08;84.74;102752.81;5055572;28;20223;-65
2021/12/17 05:43:22;;;;;;;30.97;15.57;;;;;;;8.95;85.60;102754.44;5061090;28;20235;-65
2021/12/17 05:46:02;;;;;;;27.10;15.47;;;;;;;9.19;84.18;102763.69;5060319;28;20224;-65
2021/12/17 05:48:31;;;;;;;23.93;15.17;;;;;;;9.27;83.21;102768.56;5058591;28;20230;-66
2021/12/17 05:51:01;;;;;;;27.93;16.03;;;;;;;9.28;82.85;102779.09;5060541;28;20295;-66
2021/12/17 05:53:29;;;;;;;25.60;15.77;;;;;;;9.13;83.08;102769.34;5055556;28;20215;-65
2021/12/17 05:55:58;;;;;;;27.73;16.10;;;;;;;8.98;84.39;102772.78;5054731;28;20259;-64
2021/12/17 05:58:28;;;;;;;32.90;17.50;;;;;;;9.15;83.57;102777.19;5061131;28;20235;-64
2021/12/17 06:00:56;;;;;;;32.40;18.10;;;;;;;9.05;83.91;102772.41;5058132;28;20885;-64
2021/12/17 06:03:25;;;;;;;31.07;18.40;;;;;;;9.07;84.31;102781.09;5048993;28;20257;-66
2021/12/17 06:05:54;;;;;;;31.37;17.30;;;;;;;9.15;83.62;102785.97;5052796;28;20266;-64
2021/12/17 06:08:21;;;;;;;38.37;18.90;;;;;;;9.23;83.19;102773.19;5054065;28;20793;-64
2021/12/17 06:10:49;;;;;;;36.37;20.47;;;;;;;9.09;83.70;102773.06;5052447;28;20264;-64
2021/12/17 06:13:17;;;;;;;38.13;19.07;;;;;;;9.05;84.09;102768.91;5050356;28;20250;-65
2021/12/17 06:15:45;;;;;;;31.03;19.43;;;;;;;9.03;83.95;102768.13;5056835;28;20208;-66
2021/12/17 06:18:14;;;;;;;32.50;19.20;;;;;;;8.95;84.46;102778.25;5053242;28;20210;-66
2021/12/17 06:20:42;;;;;;;33.20;19.10;;;;;;;8.95;84.62;102783.56;5059859;28;20235;-66
2021/12/17 06:23:11;;;;;;;32.70;19.50;;;;;;;8.88;85.12;102785.66;5052971;28;20701;-65
2021/12/17 06:25:39;;;;;;;34.37;19.93;;;;;;;8.90;84.89;102785.56;5050253;28;20279;-65
2021/12/17 06:28:07;;;;;;;34.23;19.43;;;;;;;8.85;85.06;102788.47;5054787;28;20243;-65
2021/12/17 06:30:35;;;;;;;35.37;19.77;;;;;;;8.83;85.12;102784.19;5049557;28;20589;-65
2021/12/17 06:33:02;;;;;;;31.20;18.53;;;;;;;8.80;85.23;102790.47;5051401;28;20218;-66
2021/12/17 06:35:31;;;;;;;35.73;19.17;;;;;;;8.82;84.83;102785.13;5050462;28;20547;-65
2021/12/17 06:37:59;;;;;;;34.20;19.10;;;;;;;8.76;84.81;102788.09;5056576;28;20214;-63
2021/12/17 06:40:29;;;;;;;33.50;18.00;;;;;;;8.78;84.83;102787.09;5059934;28;20209;-64
2021/12/17 06:42:57;;;;;;;33.77;20.47;;;;;;;8.67;85.15;102789.44;5055733;28;20512;-65
2021/12/17 06:45:39;;;;;;;34.60;18.83;;;;;;;8.64;85.35;102795.72;5052517;28;20849;-65
2021/12/17 06:48:09;;;;;;;38.33;19.67;;;;;;;8.62;85.11;102796.72;5059611;28;20225;-65
2021/12/17 06:59:05;;;;;;;32.73;17.80;;;;;;;8.55;85.29;102798.00;5027502;28;20286;-65
2021/12/17 07:18:41;;;;;;;30.30;17.73;;;;;;;8.39;85.06;102805.84;5056584;28;20212;-65
2021/12/17 07:24:25;;;;;;;30.57;18.37;;;;;;;8.55;84.07;102809.44;5057947;28;20216;-64
2021/12/17 07:35:39;;;;;;;27.53;15.57;;;;;;;8.68;82.84;102814.94;5049743;28;20731;-65
2021/12/17 07:40:53;;;;;;;27.53;16.03;;;;;;;8.65;83.17;102818.59;5062002;28;20590;-65
2021/12/17 07:43:27;;;;;;;28.17;19.23;;;;;;;8.66;83.20;102822.09;5054149;28;20460;-63
2021/12/17 07:45:57;;;;;;;28.60;17.10;;;;;;;8.65;83.62;102829.19;5055326;28;20290;-64
2021/12/17 07:48:26;;;;;;;29.00;16.57;;;;;;;8.66;83.65;102824.75;5057248;28;20578;-64
2021/12/17 07:50:54;;;;;;;29.30;16.97;;;;;;;8.77;83.23;102826.84;5061359;28;20322;-64
2021/12/17 07:53:22;;;;;;;27.93;17.03;;;;;;;8.73;83.72;102838.50;5051832;28;20310;-64
2021/12/17 07:55:50;;;;;;;29.90;16.97;;;;;;;8.74;83.59;102832.28;5064747;28;20230;-63
2021/12/17 07:58:18;;;;;;;40.90;18.73;;;;;;;8.88;83.31;102832.44;5054126;28;20755;-64
2021/12/17 08:00:45;;;;;;;29.97;17.30;;;;;;;8.85;83.57;102832.59;5058494;28;20207;-64
2021/12/17 08:03:14;;;;;;;31.87;16.83;;;;;;;8.82;83.69;102840.69;5052612;28;20869;-64
2021/12/17 08:05:43;;;;;;;29.57;17.53;;;;;;;8.71;84.66;102835.13;5058954;28;20215;-63
2021/12/17 08:08:12;;;;;;;29.37;17.53;;;;;;;8.89;83.97;102835.00;5061772;28;20207;-65
2021/12/17 08:10:40;;;;;;;29.97;16.30;;;;;;;8.99;83.38;102836.22;5065669;28;20660;-63
2021/12/17 08:13:13;;;;;;;27.00;16.87;;;;;;;9.02;83.35;102837.88;5069175;28;20408;-65
2021/12/17 08:15:48;;;;;;;30.00;16.40;;;;;;;9.01;83.30;102842.31;5053384;28;20229;-64
2021/12/17 08:18:30;;;;;;;33.70;17.40;;;;;;;9.07;83.25;102835.81;5056880;28;20298;-65
2021/12/17 08:26:52;;;;;;;26.47;15.60;;;;;;;9.16;82.63;102840.63;5058077;28;20200;-65
2021/12/17 08:29:43;;;;;;;27.47;16.03;;;;;;;9.20;82.49;102841.31;5052353;28;20620;-64
2021/12/17 08:32:11;;;;;;;28.03;16.40;;;;;;;9.23;82.41;102842.03;5055360;28;20298;-64
2021/12/17 08:34:40;;;;;;;32.53;16.37;;;;;;;9.30;81.99;102832.81;5064639;28;20199;-62
2021/12/17 08:37:08;;;;;;;33.00;17.00;;;;;;;9.46;81.56;102845.22;5063304;28;20373;-63
2021/12/17 08:39:35;;;;;;;28.60;17.43;;;;;;;9.55;81.10;102845.56;5060125;28;20230;-64
2021/12/17 08:42:04;;;;;;;29.53;18.53;;;;;;;9.67;80.66;102846.72;5060029;28;20684;-62
2021/12/17 08:44:32;;;;;;;32.97;17.77;;;;;;;9.68;80.60;102856.34;5063670;28;20214;-63
2021/12/17 08:47:00;;;;;;;27.73;17.67;;;;;;;9.70;80.87;102859.75;5054190;28;20567;-63
2021/12/17 08:49:28;;;;;;;29.23;17.77;;;;;;;9.68;81.06;102859.84;5056984;28;20263;-65
2021/12/17 08:52:03;;;;;;;29.17;17.57;;;;;;;9.73;81.20;102856.97;5060630;28;20292;-63
2021/12/17 08:54:31;;;;;;;29.77;18.07;;;;;;;9.76;81.36;102854.16;5057733;28;20255;-64
2021/12/17 08:56:59;;;;;;;32.97;17.63;;;;;;;9.93;80.45;102854.06;5053165;28;20217;-64
2021/12/17 08:59:29;;;;;;;28.73;17.40;;;;;;;10.07;79.77;102856.78;5060407;28;20299;-64
2021/12/17 09:01:57;;;;;;;30.77;17.70;;;;;;;9.92;79.88;102864.75;5054270;28;20244;-65
2021/12/17 09:04:27;;;;;;;29.53;17.00;;;;;;;10.11;79.54;102874.19;5052217;28;20298;-63
2021/12/17 09:06:55;;;;;;;31.07;15.33;;;;;;;10.14;79.21;102875.84;5054276;28;20697;-64
2021/12/17 09:09:24;;;;;;;27.73;16.57;;;;;;;10.25;78.60;102880.56;5058114;28;20220;-64
2021/12/17 09:11:52;;;;;;;25.97;15.13;;;;;;;10.15;79.09;102880.19;5066249;28;20289;-63
2021/12/17 09:14:20;;;;;;;26.23;15.27;;;;;;;9.98;79.81;102881.16;5053600;28;20303;-63
2021/12/17 09:16:48;;;;;;;27.67;16.00;;;;;;;10.05;79.25;102893.13;5052900;28;20219;-64
2021/12/17 09:19:17;;;;;;;23.93;14.73;;;;;;;10.11;78.77;102889.28;5051924;28;20832;-63
2021/12/17 09:21:45;;;;;;;26.13;15.13;;;;;;;10.22;77.83;102894.84;5052412;28;20626;-65
2021/12/17 09:24:13;;;;;;;22.60;14.27;;;;;;;10.02;78.00;102890.66;5050507;28;20827;-64
2021/12/17 09:26:42;;;;;;;26.03;14.37;;;;;;;10.44;77.10;102891.84;5053518;28;20280;-65
2021/12/17 09:29:10;;;;;;;22.70;12.20;;;;;;;10.54;76.22;102888.56;5066753;28;20210;-63
2021/12/17 09:31:38;;;;;;;20.70;13.23;;;;;;;10.69;75.60;102896.56;5061641;28;20207;-65
2021/12/17 09:34:05;;;;;;;23.47;13.30;;;;;;;10.79;74.99;102890.63;5056390;28;20662;-65
2021/12/17 09:36:33;;;;;;;28.10;14.47;;;;;;;10.76;75.33;102890.81;5050660;28;20349;-64
2021/12/17 09:39:01;;;;;;;33.63;14.47;;;;;;;10.78;75.03;102870.34;5061210;28;20247;-66
2021/12/17 09:41:29;;;;;;;26.73;14.63;;;;;;;10.78;75.15;102880.97;5057521;28;20771;-64
2021/12/17 09:43:58;;;;;;;26.73;13.30;;;;;;;10.80;74.80;102889.69;5049772;28;20232;-63
2021/12/17 09:46:27;;;;;;;26.77;13.23;;;;;;;10.68;74.42;102879.78;5059631;28;20310;-62
2021/12/17 09:48:55;;;;;;;23.27;12.87;;;;;;;10.84;74.42;102880.59;5063430;28;20291;-64
2021/12/17 09:51:23;;;;;;;23.20;12.60;;;;;;;10.83;74.04;102873.56;5054132;28;20232;-63
2021/12/17 09:53:51;;;;;;;20.43;12.00;;;;;;;10.83;73.96;102876.22;5050736;28;20204;-64
2021/12/17 09:56:19;;;;;;;18.53;12.17;;;;;;;10.94;73.38;102887.06;5056623;28;20238;-63
2021/12/17 09:58:47;;;;;;;19.17;11.87;;;;;;;10.93;72.11;102884.47;5057577;28;20211;-60
2021/12/17 10:01:17;;;;;;;20.63;10.90;;;;;;;11.27;71.60;102889.47;5056714;28;20323;-61
2021/12/17 10:03:45;;;;;;;19.17;10.47;;;;;;;11.88;67.75;102884.78;5058557;28;20229;-61
2021/12/17 10:06:25;;;;;;;18.60;11.27;;;;;;;13.10;63.37;102886.34;5058596;28;20633;-62
2021/12/17 10:08:52;;;;;;;18.70;10.53;;;;;;;14.08;59.99;102874.03;5061183;28;20291;-59
2021/12/17 10:11:21;;;;;;;15.07;10.03;;;;;;;13.69;61.29;102869.78;5063728;28;20214;-60
2021/12/17 10:13:48;;;;;;;21.77;9.70;;;;;;;14.63;57.96;102868.97;5068310;28;20225;-62
2021/12/17 10:16:21;;;;;;;18.07;9.80;;;;;;;13.10;61.42;102881.03;5057981;28;20203;-63
2021/12/17 10:18:51;;;;;;;20.70;9.33;;;;;;;12.35;63.96;102879.06;5054534;28;20243;-63
2021/12/17 10:21:21;;;;;;;21.87;10.00;;;;;;;12.15;64.46;102872.38;5048611;28;20215;-59
2021/12/17 10:23:50;;;;;;;15.00;9.33;;;;;;;12.21;65.03;102865.81;5049324;28;20223;-61
2021/12/17 10:26:21;;;;;;;17.37;9.37;;;;;;;12.14;65.01;102865.34;5053854;28;20294;-60
2021/12/17 10:28:54;;;;;;;14.53;9.80;;;;;;;12.28;65.07;102869.78;5052191;28;20215;-62
2021/12/17 10:31:25;;;;;;;19.57;9.77;;;;;;;12.35;64.60;102874.59;5058914;28;20219;-61
2021/12/17 10:33:55;;;;;;;17.73;9.77;;;;;;;12.35;64.63;102869.25;5053585;28;20294;-62
2021/12/17 10:36:30;;;;;;;16.97;9.00;;;;;;;13.29;59.35;102861.09;5056217;28;20699;-61
2021/12/17 10:39:21;;;;;;;15.50;8.93;;;;;;;14.17;57.63;102858.19;5053982;28;20220;-61
2021/12/17 10:41:49;;;;;;;12.33;8.13;;;;;;;15.83;52.01;102855.97;5048319;28;20247;-60
2021/12/17 10:44:19;;;;;;;17.33;9.07;;;;;;;13.52;58.31;102868.34;5060499;28;20219;-62
2021/12/17 10:47:13;;;;;;;11.80;8.23;;;;;;;16.67;49.90;102855.19;5051872;28;20235;-64
2021/12/17 10:49:52;;;;;;;14.10;8.60;;;;;;;13.86;57.32;102870.28;5059550;28;20265;-64
2021/12/17 10:52:32;;;;;;;10.60;7.83;;;;;;;13.48;58.22;102861.50;5057075;28;20560;-60
2021/12/17 10:55:08;;;;;;;11.97;7.87;;;;;;;12.99;60.08;102862.25;5053390;28;20715;-63
2021/12/17 10:57:36;;;;;;;11.47;7.97;;;;;;;12.83;59.89;102861.59;5057792;28;20298;-63
2021/12/17 11:00:06;;;;;;;12.70;8.57;;;;;;;12.38;62.60;102863.75;5066531;28;20235;-64
2021/12/17 11:02:37;;;;;;;18.50;9.23;;;;;;;12.13;62.10;102865.47;5062687;28;20628;-63
2021/12/17 11:05:12;;;;;;;15.97;9.50;;;;;;;12.02;63.66;102861.69;5062972;28;20256;-61
2021/12/17 11:07:40;;;;;;;14.57;9.13;;;;;;;11.79;64.00;102854.31;5054864;28;20599;-62
2021/12/17 11:10:08;;;;;;;13.10;8.27;;;;;;;11.38;64.23;102854.25;5058082;28;20295;-63
2021/12/17 11:12:38;;;;;;;16.50;8.70;;;;;;;11.63;64.60;102851.78;5054766;28;20257;-62
2021/12/17 11:15:12;;;;;;;11.37;7.80;;;;;;;12.89;59.56;102844.34;5053301;28;20208;-63
2021/12/17 11:17:43;;;;;;;13.00;8.00;;;;;;;12.88;58.26;102840.81;5051706;28;20214;-62
2021/12/17 11:20:15;;;;;;;12.43;7.60;;;;;;;13.22;57.89;102836.69;5056140;28;20665;-64
2021/12/17 11:22:45;;;;;;;9.40;7.20;;;;;;;14.21;56.55;102840.16;5053400;28;20235;-63
2021/12/17 11:25:14;;;;;;;12.53;6.80;;;;;;;15.05;51.34;102823.88;5053240;28;20637;-63
2021/12/17 11:27:42;;;;;;;9.30;6.97;;;;;;;13.64;55.61;102830.09;5056664;28;20230;-62
2021/12/17 11:30:13;;;;;;;8.77;6.80;;;;;;;13.12;58.36;102833.78;5065940;28;20212;-63
2021/12/17 11:32:48;;;;;;;11.30;7.60;;;;;;;12.50;59.01;102839.91;5060912;28;20203;-62
2021/12/17 11:35:27;;;;;;;15.17;7.43;;;;;;;12.42;60.24;102846.59;5056153;28;20208;-64
2021/12/17 11:37:58;;;;;;;10.60;7.33;;;;;;;12.15;61.78;102845.78;5060395;28;20250;-63
2021/12/17 11:40:32;;;;;;;12.13;7.70;;;;;;;12.07;61.53;102838.31;5055271;28;20215;-62
2021/12/17 11:43:20;;;;;;;12.33;7.20;;;;;;;11.89;62.26;102849.28;5055622;28;20240;-62
2021/12/17 11:45:58;;;;;;;13.03;7.60;;;;;;;11.79;62.79;102853.47;5059947;28;20210;-62
2021/12/17 11:48:30;;;;;;;10.37;7.17;;;;;;;11.48;63.66;102851.88;5063915;28;20216;-63
2021/12/17 11:51:06;;;;;;;14.27;7.53;;;;;;;11.36;63.04;102840.22;5061601;28;20263;-63
2021/12/17 11:53:41;;;;;;;13.97;7.77;;;;;;;11.39;62.58;102834.72;5059542;28;20242;-61
2021/12/17 11:56:09;;;;;;;13.30;7.63;;;;;;;11.65;62.02;102830.41;5064519;28;20254;-60
2021/12/17 11:58:49;;;;;;;12.80;7.20;;;;;;;11.66;63.98;102830.31;5058680;28;20631;-62
2021/12/17 12:02:03;;;;;;;11.30;7.27;;;;;;;11.50;62.96;102828.75;5054217;28;20206;-61
2021/12/17 12:05:04;;;;;;;15.10;7.70;;;;;;;11.67;63.79;102815.22;5025934;28;20232;-60
2021/12/17 12:07:34;;;;;;;15.90;9.13;;;;;;;11.47;63.87;102819.16;5055121;28;20267;-62
2021/12/17 12:10:21;;;;;;;14.67;8.10;;;;;;;11.53;63.42;102815.25;5056749;28;20206;-62
2021/12/17 12:13:00;;;;;;;14.53;8.30;;;;;;;11.25;63.83;102821.47;5056745;28;20245;-62
2021/12/17 12:16:01;;;;;;;12.03;8.00;;;;;;;10.83;62.90;102819.59;5054214;28;20214;-62
2021/12/17 12:18:43;;;;;;;13.93;8.40;;;;;;;11.18;64.02;102818.31;5053140;28;20250;-64
2021/12/17 12:21:15;;;;;;;14.37;8.63;;;;;;;11.04;64.68;102817.47;5054950;28;20286;-65
2021/12/17 12:23:55;;;;;;;12.70;8.50;;;;;;;10.91;64.21;102817.34;5053127;28;20292;-62
2021/12/17 12:26:40;;;;;;;14.67;8.20;;;;;;;10.97;64.56;102813.47;5058848;28;20221;-62
2021/12/17 12:29:14;;;;;;;11.17;8.00;;;;;;;11.15;64.13;102815.00;5060489;28;20284;-62
2021/12/17 12:32:07;;;;;;;13.60;8.80;;;;;;;11.23;63.95;102815.38;5051740;28;20598;-62
2021/12/17 12:34:38;;;;;;;15.20;9.00;;;;;;;11.24;63.63;102814.44;5056887;28;20209;-62
2021/12/17 12:37:19;;;;;;;13.77;8.80;;;;;;;11.13;64.24;102807.13;5056666;28;20223;-63
2021/12/17 12:40:18;;;;;;;13.50;8.03;;;;;;;11.05;64.41;102806.75;5063422;28;20223;-63
2021/12/17 12:42:54;;;;;;;18.10;9.13;;;;;;;11.07;64.16;102811.97;5043159;28;20774;-64
2021/12/17 12:45:24;;;;;;;15.17;9.60;;;;;;;10.92;64.10;102811.94;5059201;28;20361;-61
2021/12/17 12:47:58;;;;;;;14.10;8.50;;;;;;;11.20;65.15;102808.44;5056291;28;20203;-65
2021/12/17 12:50:36;;;;;;;13.77;8.03;;;;;;;11.16;65.11;102803.44;5059096;28;20293;-64
2021/12/17 12:53:11;;;;;;;16.87;9.60;;;;;;;11.16;65.50;102796.31;5055982;28;20242;-64
2021/12/17 12:55:43;;;;;;;15.23;10.00;;;;;;;11.14;66.47;102802.66;5056688;28;20224;-64
2021/12/17 12:58:14;;;;;;;16.00;9.83;;;;;;;11.05;66.28;102804.09;5055899;28;20213;-63
2021/12/17 13:00:46;;;;;;;20.43;9.53;;;;;;;10.97;65.88;102813.47;5058040;28;20248;-64
2021/12/17 13:03:16;;;;;;;15.70;9.63;;;;;;;10.93;66.93;102811.00;5050357;28;20209;-64
2021/12/17 13:05:47;;;;;;;14.10;9.47;;;;;;;10.99;66.40;102809.78;5064281;28;20593;-63
2021/12/17 13:08:18;;;;;;;16.43;10.53;;;;;;;11.02;65.53;102809.59;5059340;28;20943;-62
2021/12/17 13:10:49;;;;;;;16.70;9.50;;;;;;;11.02;65.61;102819.34;5057121;28;20654;-62
2021/12/17 13:13:27;;;;;;;15.87;9.40;;;;;;;10.94;66.08;102820.69;5055573;28;20208;-62
2021/12/17 13:16:07;;;;;;;18.67;9.60;;;;;;;10.97;65.03;102810.81;5062634;28;20654;-63
2021/12/17 13:21:42;;;;;;;15.37;10.00;;;;;;;10.93;65.44;102800.38;5052040;28;20833;-65
2021/12/17 13:24:15;;;;;;;17.37;9.90;;;;;;;10.70;64.70;102795.63;5055593;28;20216;-64
2021/12/17 13:26:47;;;;;;;14.33;9.40;;;;;;;10.77;64.91;102796.09;5052853;28;20319;-64
2021/12/17 13:29:18;;;;;;;18.30;9.97;;;;;;;10.72;65.93;102796.41;5056673;28;20207;-65
2021/12/17 13:31:51;;;;;;;15.47;9.90;;;;;;;10.91;66.80;102794.31;5052805;28;20287;-63
2021/12/17 13:34:28;;;;;;;15.43;10.17;;;;;;;10.81;66.98;102787.88;5052701;28;20200;-64
2021/12/17 13:37:08;;;;;;;14.87;10.13;;;;;;;10.63;67.51;102796.94;5064850;28;20289;-63
2021/12/17 13:39:42;;;;;;;17.00;9.63;;;;;;;10.77;66.37;102785.50;5056910;28;20299;-64
2021/12/17 13:42:13;;;;;;;20.60;10.57;;;;;;;10.83;66.76;102791.28;5051588;28;20318;-63
2021/12/17 13:44:45;;;;;;;15.13;9.50;;;;;;;10.62;66.94;102787.28;5060474;28;20230;-64
2021/12/17 13:47:23;;;;;;;16.63;10.27;;;;;;;10.66;66.83;102788.78;5053821;28;20617;-63
2021/12/17 13:49:57;;;;;;;15.43;9.20;;;;;;;10.63;67.25;102786.34;5056148;28;20655;-64
2021/12/17 13:52:27;;;;;;;17.97;9.53;;;;;;;10.80;67.88;102793.28;5096911;28;20202;-64
2021/12/17 13:54:57;;;;;;;17.43;9.20;;;;;;;10.72;67.28;102793.75;5099554;27;20635;-63
2021/12/17 13:57:27;;;;;;;16.50;9.80;;;;;;;10.54;66.56;102782.44;5101583;27;20592;-65
2021/12/17 14:00:06;;;;;;;14.07;9.07;;;;;;;10.55;67.60;102784.13;5092942;27;20296;-63